Terminal Aerodrome Forecast
Issued by NWS Chicago, IL

Home | Current Version | Previous Version | Graphics & Text | Print | Product List | Glossary On
Versions: 1 2 3 4 5 6 7 8 9 10 11 12 13 14 15 16 17 18 19 20 21 22 23 24
492
FTUS43 KLOT 300534
TAFRFD
TAF
KRFD 300534Z 3006/0106 03010KT P6SM VCSH OVC015
     FM301500 04013G20KT P6SM VCSH OVC010
     FM010000 04010KT P6SM SCT004 OVC009=

USA.gov is the U.S. government's official web portal to all federal, state and local government web resources and services.